Time;durP1;ratioP1;P1;durP2;ratioP2;P2;SDS_P1;SDS_P2;PMS_P1;PMS_P2;Temp;Humidity;BMP_temperature;BMP_pressure;BME280_temperature;BME280_humidity;BME280_pressure;Samples;Min_cycle;Max_cycle;Signal;HPM_P1;HPM_P2
2021/01/24 00:01:12;;;;;;;43.40;21.97;;;;;;;1.57;100.00;99295.73;1752006;79;21174;-66
2021/01/24 00:03:40;;;;;;;51.77;23.50;;;;;;;1.57;100.00;99291.84;1730697;82;21146;-66
2021/01/24 00:06:08;;;;;;;44.30;21.07;;;;;;;1.60;100.00;99290.49;1731397;82;21176;-67
2021/01/24 00:08:38;;;;;;;64.12;26.93;;;;;;;1.62;100.00;99292.63;1731446;82;21687;-68
2021/01/24 00:11:06;;;;;;;57.25;24.85;;;;;;;1.63;100.00;99289.14;1731405;82;21398;-67
2021/01/24 00:13:34;;;;;;;54.42;21.55;;;;;;;1.60;100.00;99293.09;1731463;82;21209;-68
2021/01/24 00:16:03;;;;;;;57.50;24.45;;;;;;;1.58;100.00;99287.06;1741946;80;21205;-69
2021/01/24 00:18:31;;;;;;;50.98;22.73;;;;;;;1.57;100.00;99285.36;1707654;84;21673;-69
2021/01/24 00:20:59;;;;;;;61.92;25.60;;;;;;;1.55;100.00;99284.07;1756373;81;21253;-71
2021/01/24 00:23:27;;;;;;;54.98;24.57;;;;;;;1.54;100.00;99280.19;1771916;80;21821;-70
2021/01/24 00:25:55;;;;;;;60.85;27.27;;;;;;;1.53;100.00;99275.89;1771958;80;21617;-70
2021/01/24 00:28:24;;;;;;;58.17;27.55;;;;;;;1.54;100.00;99274.58;1799073;79;22219;-69
2021/01/24 00:30:52;;;;;;;54.98;25.37;;;;;;;1.55;100.00;99267.65;1779075;79;21201;-72
2021/01/24 00:33:21;;;;;;;57.20;28.10;;;;;;;1.56;100.00;99269.34;1771237;81;21205;-73
2021/01/24 00:35:49;;;;;;;55.85;24.07;;;;;;;1.58;100.00;99255.91;1771174;81;21217;-74
2021/01/24 00:38:16;;;;;;;53.50;27.13;;;;;;;1.61;100.00;99262.34;1739115;82;21194;-73
2021/01/24 00:40:44;;;;;;;55.45;25.30;;;;;;;1.62;100.00;99252.41;1788741;80;21174;-74
2021/01/24 00:43:12;;;;;;;49.30;24.07;;;;;;;1.63;100.00;99251.51;1792987;80;21228;-73
2021/01/24 00:45:40;;;;;;;56.18;28.25;;;;;;;1.63;100.00;99251.51;1780740;78;21161;-72
2021/01/24 00:48:09;;;;;;;60.40;26.45;;;;;;;1.65;100.00;99249.30;1771094;80;21381;-71
2021/01/24 00:50:37;;;;;;;45.88;22.52;;;;;;;1.67;100.00;99245.39;1770764;81;21202;-72
2021/01/24 00:53:07;;;;;;;79.80;32.63;;;;;;;1.69;100.00;99238.45;1764127;81;21187;-72
2021/01/24 00:55:36;;;;;;;69.60;29.23;;;;;;;1.71;100.00;99240.58;1770815;81;21154;-72
2021/01/24 00:58:05;;;;;;;66.05;29.45;;;;;;;1.72;100.00;99232.34;1770714;81;21177;-71
2021/01/24 01:00:33;;;;;;;68.83;29.02;;;;;;;1.74;100.00;99232.73;1764261;79;22293;-66
2021/01/24 01:03:01;;;;;;;55.43;25.27;;;;;;;1.74;100.00;99226.25;1757528;81;21207;-64
2021/01/24 01:05:29;;;;;;;48.70;24.25;;;;;;;1.75;100.00;99226.69;1757915;81;21207;-65
2021/01/24 01:07:57;;;;;;;51.18;24.27;;;;;;;1.78;100.00;99220.13;1758036;81;21726;-65
2021/01/24 01:10:26;;;;;;;64.05;30.05;;;;;;;1.80;100.00;99220.97;1758055;81;21159;-65
2021/01/24 01:12:54;;;;;;;60.73;28.65;;;;;;;1.81;100.00;99216.63;1757896;81;21350;-65
2021/01/24 01:15:23;;;;;;;58.20;24.85;;;;;;;1.81;100.00;99213.58;1757400;76;21190;-71
2021/01/24 01:17:51;;;;;;;61.25;28.45;;;;;;;1.81;100.00;99204.50;1725552;81;21150;-71
2021/01/24 01:20:19;;;;;;;69.10;30.85;;;;;;;1.82;100.00;99202.33;1718445;82;21171;-71
2021/01/24 01:22:47;;;;;;;57.30;27.10;;;;;;;1.85;100.00;99210.51;1754456;81;21618;-70
2021/01/24 01:25:15;;;;;;;56.88;25.27;;;;;;;1.88;100.00;99204.81;1753856;81;21765;-71
2021/01/24 01:27:42;;;;;;;67.00;29.72;;;;;;;1.90;100.00;99195.70;1754159;81;21234;-71
2021/01/24 01:30:11;;;;;;;55.98;24.40;;;;;;;1.91;100.00;99199.16;1752984;77;21096;-70
2021/01/24 01:32:39;;;;;;;52.08;25.65;;;;;;;1.89;100.00;99194.86;1735337;82;21186;-70
2021/01/24 01:35:09;;;;;;;62.80;28.23;;;;;;;1.94;100.00;99184.84;1734939;82;21175;-71
2021/01/24 01:37:37;;;;;;;72.05;30.10;;;;;;;1.96;100.00;99179.19;1734985;82;21460;-72
2021/01/24 01:40:06;;;;;;;60.28;27.73;;;;;;;1.96;100.00;99182.63;1735304;82;21182;-71
2021/01/24 01:42:34;;;;;;;56.48;26.17;;;;;;;1.95;100.00;99181.34;1734974;82;21199;-71
2021/01/24 01:45:07;;;;;;;63.52;29.87;;;;;;;1.94;100.00;99183.55;1735822;79;21162;-72
2021/01/24 01:47:37;;;;;;;72.07;31.70;;;;;;;2.00;100.00;99194.69;1728391;83;22210;-70
2021/01/24 01:50:07;;;;;;;69.82;31.27;;;;;;;2.02;100.00;99197.23;1762076;81;21523;-72
2021/01/24 01:52:35;;;;;;;81.05;31.27;;;;;;;2.05;100.00;99202.40;1728344;83;21206;-75
2021/01/24 01:55:06;;;;;;;66.12;28.32;;;;;;;2.04;100.00;99198.06;1756871;80;21590;-72
2021/01/24 01:57:34;;;;;;;57.70;28.60;;;;;;;2.08;100.00;99186.75;1763872;81;21863;-72
2021/01/24 02:00:08;;;;;;;65.50;28.85;;;;;;;2.10;100.00;99187.58;1765311;76;22683;31
2021/01/24 02:03:18;;;;;;;66.00;29.75;;;;;;;2.11;100.00;99176.30;1718718;82;21377;-69
2021/01/24 02:06:04;;;;;;;66.12;27.48;;;;;;;2.11;100.00;99186.69;1734442;82;21225;-68
2021/01/24 02:08:39;;;;;;;63.63;29.87;;;;;;;2.16;100.00;99186.60;1733433;82;21593;-68
2021/01/24 02:11:24;;;;;;;74.75;31.93;;;;;;;2.15;100.00;99177.95;1730971;82;21259;-69
2021/01/24 02:14:31;;;;;;;68.80;28.62;;;;;;;2.14;100.00;99181.45;1729344;82;21146;-68
2021/01/24 02:17:01;;;;;;;66.22;29.90;;;;;;;2.14;100.00;99182.76;1752490;77;21206;-73
2021/01/24 02:20:00;;;;;;;96.70;36.73;;;;;;;2.16;100.00;99178.81;1762691;81;21194;-73
2021/01/24 02:22:31;;;;;;;68.10;29.90;;;;;;;2.15;100.00;99174.06;1757108;81;21167;-72
2021/01/24 02:25:16;;;;;;;51.23;24.30;;;;;;;2.15;100.00;99166.27;1768719;81;21560;-72
2021/01/24 02:27:59;;;;;;;101.38;34.92;;;;;;;2.14;100.00;99171.06;1770496;81;21246;-72
2021/01/24 02:30:30;;;;;;;69.27;29.90;;;;;;;2.13;100.00;99162.84;1767221;79;21319;-68
2021/01/24 02:33:18;;;;;;;81.63;32.33;;;;;;;2.11;100.00;99168.50;1770825;81;21121;-68
2021/01/24 02:35:55;;;;;;;75.97;32.23;;;;;;;2.14;100.00;99171.06;1770551;81;21168;-68
2021/01/24 02:38:24;;;;;;;60.95;28.73;;;;;;;2.17;100.00;99163.20;1791814;79;21586;-69
2021/01/24 02:40:51;;;;;;;72.20;29.90;;;;;;;2.18;100.00;99159.71;1802688;79;21174;-69
2021/01/24 02:43:19;;;;;;;66.07;26.70;;;;;;;2.19;100.00;99158.84;1802859;79;22031;-68
2021/01/24 02:45:49;;;;;;;45.43;23.07;;;;;;;2.24;100.00;99162.20;1769046;78;21629;-73
2021/01/24 02:48:18;;;;;;;45.40;23.60;;;;;;;2.24;100.00;99159.61;1779704;80;21146;-71
2021/01/24 02:50:47;;;;;;;52.98;23.47;;;;;;;2.27;100.00;99166.03;1779667;80;21590;-71
2021/01/24 02:53:15;;;;;;;50.03;23.45;;;;;;;2.30;100.00;99159.50;1773143;79;21151;-72
2021/01/24 02:55:44;;;;;;;39.20;20.80;;;;;;;2.33;100.00;99160.33;1738432;82;21607;-72
2021/01/24 02:58:12;;;;;;;58.15;24.40;;;;;;;2.36;100.00;99153.31;1770631;81;21576;-72
2021/01/24 03:00:42;;;;;;;55.28;24.87;;;;;;;2.38;100.00;99157.20;1743467;78;21153;-70
2021/01/24 03:03:09;;;;;;;47.13;22.05;;;;;;;2.38;100.00;99155.90;1792548;79;21158;-69
2021/01/24 03:05:37;;;;;;;56.33;25.80;;;;;;;2.39;100.00;99142.00;1792698;80;21126;-68
2021/01/24 03:08:05;;;;;;;41.15;20.30;;;;;;;2.39;100.00;99142.00;1792790;80;21351;-68
2021/01/24 03:10:33;;;;;;;46.45;21.97;;;;;;;2.42;100.00;99138.06;1781303;80;21154;-67
2021/01/24 03:13:30;;;;;;;67.95;27.80;;;;;;;2.44;100.00;99144.95;1774763;79;21421;-67
2021/01/24 03:15:58;;;;;;;51.20;26.00;;;;;;;2.47;100.00;99140.13;1759524;78;21178;-71
2021/01/24 03:18:27;;;;;;;55.48;25.62;;;;;;;2.47;100.00;99136.23;1815983;78;21107;-72
2021/01/24 03:20:55;;;;;;;60.10;28.23;;;;;;;2.48;100.00;99129.67;1798851;79;21161;-71
2021/01/24 03:23:23;;;;;;;51.77;26.75;;;;;;;2.48;100.00;99126.23;1763577;80;21184;-72
2021/01/24 03:25:51;;;;;;;55.88;26.77;;;;;;;2.47;100.00;99120.19;1769143;79;21657;-72
2021/01/24 03:28:19;;;;;;;41.77;23.65;;;;;;;2.48;100.00;99121.03;1785050;80;21630;-70
2021/01/24 03:30:50;;;;;;;39.90;20.95;;;;;;;2.47;100.00;99121.48;1791564;77;21159;-66
2021/01/24 03:33:17;;;;;;;38.08;18.57;;;;;;;2.47;100.00;99125.37;1761880;81;21759;-66
2021/01/24 03:35:45;;;;;;;54.93;25.32;;;;;;;2.48;100.00;99117.13;1761524;81;21235;-67
2021/01/24 03:38:13;;;;;;;27.40;16.52;;;;;;;2.48;100.00;99111.94;1761609;81;21207;-67
2021/01/24 03:40:41;;;;;;;31.73;18.40;;;;;;;2.51;100.00;99111.44;1761790;81;21191;-66
2021/01/24 03:43:08;;;;;;;35.90;18.05;;;;;;;2.54;100.00;99101.87;1778246;80;21155;-64
2021/01/24 03:45:37;;;;;;;30.50;16.35;;;;;;;2.52;100.00;99100.59;1787099;78;21820;-69
2021/01/24 03:48:05;;;;;;;35.58;17.90;;;;;;;2.48;100.00;99088.09;1747692;82;21162;-70
2021/01/24 03:50:33;;;;;;;37.67;16.77;;;;;;;2.48;100.00;99093.74;1744796;82;21188;-70
2021/01/24 03:53:01;;;;;;;24.18;14.53;;;;;;;2.49;100.00;99099.38;1723573;83;21195;-71
2021/01/24 03:55:29;;;;;;;30.57;15.85;;;;;;;2.47;100.00;99094.64;1723835;82;21172;-70
2021/01/24 03:57:57;;;;;;;29.63;16.87;;;;;;;2.47;100.00;99092.05;1694836;84;22357;-71
2021/01/24 04:00:26;;;;;;;32.48;17.12;;;;;;;2.50;100.00;99084.17;1706407;76;21219;31
2021/01/24 04:02:53;;;;;;;29.05;15.05;;;;;;;2.51;100.00;99091.95;1792045;80;21186;-65
2021/01/24 04:05:21;;;;;;;26.20;14.98;;;;;;;2.50;100.00;99082.42;1792211;79;21624;-65
2021/01/24 04:07:50;;;;;;;26.82;14.35;;;;;;;2.52;100.00;99092.34;1792404;79;21218;-64
2021/01/24 04:10:19;;;;;;;26.68;16.07;;;;;;;2.51;100.00;99083.30;1792415;79;21416;-65
2021/01/24 04:12:46;;;;;;;30.75;16.77;;;;;;;2.50;100.00;99088.08;1792358;79;21201;-65
2021/01/24 04:15:16;;;;;;;29.02;16.90;;;;;;;2.52;100.00;99094.09;1792319;80;21158;-65
2021/01/24 04:17:55;;;;;;;28.20;16.37;;;;;;;2.54;100.00;99093.63;1707597;83;21186;-71
2021/01/24 04:20:24;;;;;;;37.55;17.90;;;;;;;2.56;100.00;99093.16;1679021;85;21179;-70
2021/01/24 04:22:52;;;;;;;34.25;17.10;;;;;;;2.54;100.00;99080.63;1705561;84;21820;-70
2021/01/24 04:25:19;;;;;;;36.63;19.70;;;;;;;2.56;100.00;99087.11;1708993;83;22300;-70
2021/01/24 04:27:47;;;;;;;39.40;19.45;;;;;;;2.56;100.00;99080.16;1709068;83;21498;-71
2021/01/24 04:30:16;;;;;;;35.95;20.08;;;;;;;2.56;100.00;99080.16;1709161;83;21162;-71
2021/01/24 04:32:44;;;;;;;35.23;18.80;;;;;;;2.58;100.00;99079.69;1790887;79;21170;-69
2021/01/24 04:35:13;;;;;;;40.10;21.57;;;;;;;2.57;100.00;99069.31;1797282;79;21433;-70
2021/01/24 04:37:40;;;;;;;32.03;19.40;;;;;;;2.56;100.00;99072.81;1796913;79;21146;-70
2021/01/24 04:40:09;;;;;;;33.88;19.60;;;;;;;2.54;100.00;99071.53;1797129;79;21166;-69
2021/01/24 04:42:38;;;;;;;60.28;21.87;;;;;;;2.53;100.00;99068.50;1808544;79;21198;-70
2021/01/24 04:45:08;;;;;;;35.80;18.65;;;;;;;2.52;100.00;99068.11;1798948;79;21685;-74
2021/01/24 04:47:44;;;;;;;43.45;19.90;;;;;;;2.51;100.00;99067.26;1795233;78;21232;-67
2021/01/24 04:50:13;;;;;;;33.18;18.67;;;;;;;2.49;100.00;99064.29;1813027;79;21179;-68
2021/01/24 04:52:42;;;;;;;38.00;21.25;;;;;;;2.49;100.00;99068.19;1812512;79;21163;-69
2021/01/24 04:55:11;;;;;;;34.13;19.17;;;;;;;2.50;100.00;99065.53;1807717;79;21226;-68
2021/01/24 04:57:39;;;;;;;33.48;19.35;;;;;;;2.53;100.00;99072.41;1780627;80;21203;-68
2021/01/24 05:00:11;;;;;;;35.45;19.15;;;;;;;2.51;100.00;99079.41;1755578;80;21214;-67
2021/01/24 05:02:39;;;;;;;36.03;18.52;;;;;;;2.51;100.00;99062.06;1762254;77;21209;-67
2021/01/24 05:05:10;;;;;;;37.58;20.15;;;;;;;2.51;100.00;99058.62;1759468;81;21145;-67
2021/01/24 05:07:38;;;;;;;34.23;19.15;;;;;;;2.52;100.00;99051.22;1727892;82;21176;-67
2021/01/24 05:12:20;;;;;;;50.07;21.67;;;;;;;2.59;100.00;99044.99;1774300;79;22692;-66
2021/01/24 05:14:49;;;;;;;54.30;20.45;;;;;;;2.53;100.00;99051.61;1717634;82;21194;-67
2021/01/24 05:17:17;;;;;;;28.12;16.10;;;;;;;2.55;100.00;99042.49;1699478;80;22717;-67
2021/01/24 05:19:45;;;;;;;34.73;15.13;;;;;;;2.57;100.00;99048.52;1680549;85;21232;-69
2021/01/24 05:22:14;;;;;;;25.08;15.00;;;;;;;2.59;100.00;99055.84;1680642;85;21187;-69
2021/01/24 05:24:42;;;;;;;35.60;18.07;;;;;;;2.59;100.00;99049.34;1671932;84;21195;-69
2021/01/24 05:27:12;;;;;;;39.63;17.75;;;;;;;2.56;100.00;99054.16;1663542;86;21256;-68
2021/01/24 05:29:44;;;;;;;39.00;19.07;;;;;;;2.57;100.00;99054.56;1654066;86;21380;-69
2021/01/24 05:32:12;;;;;;;38.10;19.75;;;;;;;2.56;100.00;99061.12;1670874;81;21195;-66
2021/01/24 05:34:44;;;;;;;34.55;18.48;;;;;;;2.55;100.00;99059.39;1688453;84;21235;-67
2021/01/24 05:37:12;;;;;;;25.80;15.53;;;;;;;2.54;100.00;99055.94;1690805;84;21203;-66
2021/01/24 05:39:42;;;;;;;31.37;19.55;;;;;;;2.52;100.00;99057.71;1689136;84;21195;-66
2021/01/24 05:42:11;;;;;;;34.40;17.27;;;;;;;2.52;100.00;99055.11;1643440;85;21199;-65
2021/01/24 05:44:39;;;;;;;39.85;19.00;;;;;;;2.53;100.00;99056.81;1664868;85;21211;-67
2021/01/24 05:47:07;;;;;;;51.05;22.00;;;;;;;2.52;100.00;99053.36;1693674;80;21196;-67
2021/01/24 05:49:35;;;;;;;40.90;21.02;;;;;;;2.54;100.00;99048.59;1717177;83;22304;-67
2021/01/24 05:52:08;;;;;;;29.02;17.57;;;;;;;2.55;100.00;99043.34;1649775;83;21176;-68
2021/01/24 05:54:42;;;;;;;45.60;19.75;;;;;;;2.58;100.00;99048.49;1717082;82;22303;-70
2021/01/24 05:57:12;;;;;;;53.33;23.30;;;;;;;2.59;100.00;99041.09;1717097;82;21140;-68
2021/01/24 05:59:58;;;;;;;39.78;18.67;;;;;;;2.60;100.00;99052.34;1717023;83;21213;-69
2021/01/24 06:02:27;;;;;;;33.53;21.17;;;;;;;2.62;100.00;99053.16;1716614;78;21200;-72
2021/01/24 06:04:55;;;;;;;37.53;19.20;;;;;;;2.60;100.00;99044.12;1718686;83;21189;-69
2021/01/24 06:07:23;;;;;;;37.63;20.43;;;;;;;2.61;100.00;99039.31;1691146;84;21380;-74
2021/01/24 06:09:54;;;;;;;39.23;21.10;;;;;;;2.63;100.00;99032.34;1718615;83;21224;-73
2021/01/24 06:12:23;;;;;;;39.40;21.00;;;;;;;2.66;100.00;99029.66;1735016;81;21206;-71
2021/01/24 06:14:52;;;;;;;38.23;19.20;;;;;;;2.67;100.00;99026.20;1743024;81;21150;-68
2021/01/24 06:17:35;;;;;;;25.10;15.50;;;;;;;2.69;100.00;99030.92;1724574;79;21223;-72
2021/01/24 06:20:07;;;;;;;53.75;21.17;;;;;;;2.71;100.00;99017.44;1753561;81;21677;-73
2021/01/24 06:22:49;;;;;;;41.45;20.57;;;;;;;2.76;100.00;99020.36;1752910;81;21170;-71
2021/01/24 06:25:24;;;;;;;48.00;22.70;;;;;;;2.76;100.00;99015.16;1780644;78;21171;-73
2021/01/24 06:27:56;;;;;;;42.73;23.87;;;;;;;2.78;100.00;99014.23;1787165;79;21187;-74
2021/01/24 06:30:26;;;;;;;71.55;31.65;;;;;;;2.81;100.00;99007.67;1773091;79;21099;-73
2021/01/24 06:32:54;;;;;;;55.03;26.57;;;;;;;2.84;100.00;99002.39;1728535;78;22279;-64
2021/01/24 06:35:25;;;;;;;54.05;26.30;;;;;;;2.89;100.00;99021.79;1670852;84;21692;-65
2021/01/24 06:38:01;;;;;;;42.60;19.55;;;;;;;2.88;100.00;99023.99;1694977;83;21215;-64
2021/01/24 06:40:31;;;;;;;43.78;24.20;;;;;;;2.90;100.00;99017.02;1684519;83;21230;-65
2021/01/24 06:43:02;;;;;;;47.40;22.45;;;;;;;2.91;100.00;99014.81;1690793;83;21196;-65
2021/01/24 06:45:35;;;;;;;48.45;23.42;;;;;;;2.96;100.00;99009.05;1691099;83;21383;-66
2021/01/24 06:48:05;;;;;;;58.70;22.70;;;;;;;2.98;100.00;99017.67;1648321;83;21213;-72
2021/01/24 06:50:45;;;;;;;57.55;21.95;;;;;;;3.00;100.00;99019.80;1620263;88;21235;-72
2021/01/24 06:53:21;;;;;;;43.48;21.10;;;;;;;3.00;100.00;99010.69;1654991;86;21180;-71
2021/01/24 06:56:05;;;;;;;40.12;19.55;;;;;;;3.03;100.00;99025.36;1658120;86;21243;-72
2021/01/24 06:58:51;;;;;;;35.15;21.07;;;;;;;3.09;100.00;99018.72;1653864;86;21459;-73
2021/01/24 07:01:30;;;;;;;32.50;18.95;;;;;;;3.09;100.00;99018.72;1653189;86;21215;-72
2021/01/24 07:04:29;;;;;;;43.85;23.10;;;;;;;3.11;100.00;99016.94;1748497;82;21178;-64
2021/01/24 07:07:12;;;;;;;38.28;18.62;;;;;;;3.11;100.00;99016.94;1748825;82;22098;-67
2021/01/24 07:09:41;;;;;;;38.83;20.23;;;;;;;3.19;100.00;99012.84;1748606;82;21170;-66
2021/01/24 07:12:10;;;;;;;32.45;18.15;;;;;;;3.19;100.00;99012.84;1751170;80;21361;-65
2021/01/24 07:14:43;;;;;;;37.67;19.17;;;;;;;3.19;100.00;99012.84;1751629;81;21198;-68
2021/01/24 07:17:13;;;;;;;28.10;16.42;;;;;;;3.23;100.00;99015.78;1754127;79;21186;-69
2021/01/24 07:19:54;;;;;;;27.60;15.50;;;;;;;3.25;100.00;99015.30;1718417;82;21155;-69
2021/01/24 07:22:24;;;;;;;37.93;18.87;;;;;;;3.25;100.00;99020.50;1714661;82;21178;-69
2021/01/24 07:24:53;;;;;;;40.08;20.35;;;;;;;3.32;100.00;99019.45;1716620;82;21196;-68
2021/01/24 07:27:25;;;;;;;36.63;19.02;;;;;;;3.32;100.00;99019.45;1668234;85;21233;-69
2021/01/24 07:29:54;;;;;;;43.75;21.97;;;;;;;3.30;100.00;99018.63;1644210;86;21250;-68
2021/01/24 07:32:25;;;;;;;36.98;19.55;;;;;;;3.33;100.00;99021.14;1728548;80;21611;-66
2021/01/24 07:34:54;;;;;;;47.05;21.77;;;;;;;3.34;100.00;99020.27;1734823;81;21206;-66
2021/01/24 07:37:22;;;;;;;40.00;22.02;;;;;;;3.38;100.00;99008.86;1687276;83;21818;-67
2021/01/24 07:39:51;;;;;;;45.67;22.90;;;;;;;3.38;100.00;99008.86;1685054;84;21208;-66
2021/01/24 07:42:19;;;;;;;52.95;27.20;;;;;;;3.38;100.00;99008.86;1653462;85;21203;-66
2021/01/24 07:44:48;;;;;;;39.35;23.02;;;;;;;3.44;100.00;99013.92;1698235;82;21204;-67
2021/01/24 07:47:16;;;;;;;47.98;24.40;;;;;;;3.44;100.00;99013.92;1681294;81;21658;-70
2021/01/24 07:49:44;;;;;;;56.90;25.90;;;;;;;3.46;100.00;99005.63;1727198;82;21862;-69
2021/01/24 07:52:12;;;;;;;46.45;23.00;;;;;;;3.51;100.00;99008.95;1707050;82;21147;-70
2021/01/24 07:54:40;;;;;;;47.13;23.75;;;;;;;3.55;100.00;99002.78;1710070;83;21147;-70
2021/01/24 07:57:09;;;;;;;49.55;25.82;;;;;;;3.62;100.00;99007.38;1680303;85;21761;-70
2021/01/24 07:59:37;;;;;;;50.98;26.97;;;;;;;3.66;100.00;98997.30;1646825;85;21215;-73
2021/01/24 08:02:06;;;;;;;51.63;25.30;;;;;;;3.72;100.00;98991.91;1687819;82;21820;-67
2021/01/24 08:04:38;;;;;;;48.85;24.95;;;;;;;3.72;100.00;98991.91;1694157;82;21771;-66
2021/01/24 08:07:08;;;;;;;54.65;27.05;;;;;;;3.76;100.00;98995.30;1702741;82;21199;-66
2021/01/24 08:09:36;;;;;;;50.00;25.75;;;;;;;3.80;100.00;98995.63;1703098;82;21195;-69
2021/01/24 08:12:14;;;;;;;45.60;23.55;;;;;;;3.84;100.00;98986.80;1694788;83;21207;-67
2021/01/24 08:14:43;;;;;;;46.30;25.05;;;;;;;3.89;100.00;98988.85;1696451;83;22395;-68
2021/01/24 08:17:14;;;;;;;45.08;21.80;;;;;;;3.93;100.00;98978.77;1702253;80;21295;-71
2021/01/24 08:19:42;;;;;;;48.85;26.57;;;;;;;3.98;100.00;98981.23;1720037;82;21187;-72
2021/01/24 08:22:11;;;;;;;47.17;24.50;;;;;;;3.99;100.00;98981.17;1698442;84;21241;-72
2021/01/24 08:24:40;;;;;;;41.77;22.93;;;;;;;4.08;100.00;98977.91;1684830;83;21755;-71
2021/01/24 08:27:08;;;;;;;59.33;26.75;;;;;;;4.08;100.00;98977.91;1679747;83;21235;-70
2021/01/24 08:29:37;;;;;;;53.45;26.48;;;;;;;4.10;100.00;98978.72;1695864;83;21775;-69
2021/01/24 08:32:08;;;;;;;49.70;25.92;;;;;;;4.08;100.00;98976.61;1688641;80;21970;-71
2021/01/24 08:34:37;;;;;;;61.45;29.12;;;;;;;4.07;100.00;98967.95;1666322;84;21238;-71
2021/01/24 08:37:05;;;;;;;58.38;29.72;;;;;;;4.04;100.00;98966.70;1665742;84;22236;-71
2021/01/24 08:39:33;;;;;;;78.50;35.05;;;;;;;4.03;100.00;98966.31;1660883;86;22109;-68
2021/01/24 08:42:06;;;;;;;60.85;31.37;;;;;;;4.01;100.00;98963.36;1615647;86;21778;-69
2021/01/24 08:44:34;;;;;;;47.33;25.43;;;;;;;4.02;100.00;98960.69;1656490;86;21202;-69
2021/01/24 08:47:06;;;;;;;60.20;30.52;;;;;;;4.03;100.00;98960.27;1659951;84;21282;-67
2021/01/24 08:49:35;;;;;;;66.50;30.95;;;;;;;4.02;100.00;98953.33;1703657;83;21188;-67
2021/01/24 08:52:05;;;;;;;60.10;29.05;;;;;;;4.02;100.00;98945.52;1688907;84;21747;-66
2021/01/24 08:54:34;;;;;;;56.05;27.02;;;;;;;4.05;100.00;98950.63;1690562;84;21200;-67
2021/01/24 08:57:11;;;;;;;54.10;27.25;;;;;;;4.05;100.00;98945.41;1689980;84;21644;-66
2021/01/24 08:59:52;;;;;;;73.20;32.70;;;;;;;4.08;100.00;98950.55;1690457;84;21176;-68
2021/01/24 09:02:37;;;;;;;58.23;27.50;;;;;;;4.07;100.00;98945.80;1689733;80;21202;-69
2021/01/24 09:05:13;;;;;;;66.62;28.27;;;;;;;4.05;100.00;98943.69;1707188;83;21421;-70
2021/01/24 09:07:48;;;;;;;47.67;23.15;;;;;;;4.07;100.00;98949.70;1667114;83;21303;-71
2021/01/24 09:10:31;;;;;;;47.65;24.50;;;;;;;4.07;100.00;98947.10;1653058;86;21191;-70
2021/01/24 09:13:04;;;;;;;56.75;26.48;;;;;;;4.09;100.00;98945.28;1691921;83;21213;-69
2021/01/24 09:15:33;;;;;;;50.25;24.05;;;;;;;4.10;100.00;98941.79;1680930;83;21153;-69
2021/01/24 09:18:01;;;;;;;51.95;24.90;;;;;;;4.14;100.00;98943.41;1671868;83;22707;-68
2021/01/24 09:20:29;;;;;;;49.18;23.18;;;;;;;4.17;100.00;98947.67;1706782;83;21211;-67
2021/01/24 09:22:59;;;;;;;40.03;21.75;;;;;;;4.16;100.00;98944.65;1733415;81;21148;-69
2021/01/24 09:25:26;;;;;;;50.20;24.25;;;;;;;4.19;100.00;98947.19;1724427;83;21738;-68
2021/01/24 09:27:54;;;;;;;47.38;22.67;;;;;;;4.20;100.00;98939.75;1730092;81;21674;-67
2021/01/24 09:30:22;;;;;;;51.53;24.10;;;;;;;4.23;100.00;98940.95;1731959;82;21397;-68
2021/01/24 09:32:52;;;;;;;40.43;20.88;;;;;;;4.23;100.00;98940.95;1726406;80;21205;-65
2021/01/24 09:35:20;;;;;;;37.58;20.75;;;;;;;4.24;100.00;98935.31;1660087;84;21203;-66
2021/01/24 09:37:48;;;;;;;52.33;26.07;;;;;;;4.24;99.85;98939.22;1657284;86;21226;-67
2021/01/24 09:40:16;;;;;;;44.60;22.50;;;;;;;4.28;100.00;98939.09;1657116;86;21674;-66
2021/01/24 09:42:44;;;;;;;39.65;21.68;;;;;;;4.32;99.79;98931.55;1629746;88;21844;-68
2021/01/24 09:45:13;;;;;;;39.48;19.27;;;;;;;4.36;99.62;98933.17;1658191;86;21190;-66
2021/01/24 09:47:41;;;;;;;51.37;26.42;;;;;;;4.37;99.41;98927.08;1664273;81;21040;-67
2021/01/24 09:50:10;;;;;;;63.20;26.77;;;;;;;4.36;99.13;98922.74;1672568;83;21168;-69
2021/01/24 09:52:42;;;;;;;48.50;23.30;;;;;;;4.40;99.13;98916.55;1636816;87;21209;-69
2021/01/24 09:55:11;;;;;;;42.70;21.33;;;;;;;4.48;99.19;98920.20;1660972;86;21370;-68
2021/01/24 09:57:40;;;;;;;51.60;22.13;;;;;;;4.56;99.23;98912.16;1644501;87;21277;-68
2021/01/24 10:00:09;;;;;;;49.55;23.20;;;;;;;4.62;98.83;98911.94;1659659;86;21178;-66
2021/01/24 10:02:40;;;;;;;65.32;31.80;;;;;;;4.71;98.63;98906.42;1665793;79;21147;-69
2021/01/24 10:05:12;;;;;;;57.60;25.37;;;;;;;4.85;98.82;98904.66;1651673;85;21191;-67
2021/01/24 10:07:42;;;;;;;42.05;20.00;;;;;;;5.00;98.90;98900.70;1658180;85;21225;-67
2021/01/24 10:10:12;;;;;;;34.23;17.15;;;;;;;5.10;98.56;98894.25;1657415;85;21258;-68
2021/01/24 10:12:40;;;;;;;38.45;19.35;;;;;;;5.15;97.79;98897.55;1637095;86;21262;-68
2021/01/24 10:15:10;;;;;;;36.93;16.90;;;;;;;5.19;97.17;98891.33;1628798;88;21225;-66
2021/01/24 10:17:39;;;;;;;31.10;15.00;;;;;;;5.23;96.85;98899.45;1630344;82;21169;-70
2021/01/24 10:20:08;;;;;;;69.95;18.37;;;;;;;5.24;96.39;98897.26;1632899;86;21242;-67
2021/01/24 10:22:36;;;;;;;31.80;15.15;;;;;;;5.24;96.09;98890.73;1615524;86;21220;-65
2021/01/24 10:25:06;;;;;;;35.35;17.87;;;;;;;5.26;95.74;98890.66;1618117;88;21203;-66
2021/01/24 10:27:34;;;;;;;39.38;18.20;;;;;;;5.34;95.80;98883.42;1605832;88;21208;-67
2021/01/24 10:30:04;;;;;;;30.82;14.75;;;;;;;5.44;95.87;98886.55;1632069;86;21120;-65
2021/01/24 10:32:41;;;;;;;42.20;18.40;;;;;;;5.53;95.02;98891.44;1627852;84;21382;31
2021/01/24 10:35:09;;;;;;;35.35;16.20;;;;;;;5.60;94.04;98883.78;1633283;87;21272;-72
2021/01/24 10:37:37;;;;;;;38.88;18.27;;;;;;;5.72;94.13;98879.02;1678147;85;21194;-71
2021/01/24 10:40:08;;;;;;;36.77;15.68;;;;;;;5.80;92.95;98875.67;1665273;84;21256;-72
2021/01/24 10:42:40;;;;;;;42.65;18.82;;;;;;;5.87;92.92;98875.38;1693540;83;21211;-71
2021/01/24 10:45:10;;;;;;;35.52;16.85;;;;;;;5.94;92.16;98865.58;1684991;84;21826;-71
2021/01/24 10:47:40;;;;;;;37.60;17.87;;;;;;;6.00;91.97;98864.47;1693960;81;21243;31
2021/01/24 10:50:11;;;;;;;38.13;17.07;;;;;;;6.04;91.73;98865.60;1679402;83;21698;-68
2021/01/24 10:52:43;;;;;;;45.78;20.10;;;;;;;6.09;91.22;98852.36;1692388;83;21231;-68
2021/01/24 10:55:11;;;;;;;36.48;16.62;;;;;;;6.13;90.66;98858.33;1692127;84;21127;-66
2021/01/24 10:57:39;;;;;;;32.45;14.73;;;;;;;6.18;91.02;98856.38;1692064;84;21212;-68
2021/01/24 11:00:08;;;;;;;35.98;17.45;;;;;;;6.26;90.55;98853.02;1689959;83;21207;-67
2021/01/24 11:02:43;;;;;;;34.10;17.42;;;;;;;6.34;90.85;98856.16;1694002;83;21140;-70
2021/01/24 11:05:12;;;;;;;33.92;17.35;;;;;;;6.40;89.61;98863.77;1667249;83;21750;-73
2021/01/24 11:07:40;;;;;;;37.48;19.65;;;;;;;6.42;89.57;98855.41;1670255;85;21192;-71
2021/01/24 11:10:08;;;;;;;44.08;17.80;;;;;;;6.43;89.26;98849.72;1668082;85;21181;-70
2021/01/24 11:12:37;;;;;;;41.13;18.75;;;;;;;6.43;88.67;98846.64;1668123;85;21651;-72
2021/01/24 11:15:07;;;;;;;42.85;18.52;;;;;;;6.48;89.21;98849.91;1669123;85;21188;-70
2021/01/24 11:17:44;;;;;;;33.13;18.25;;;;;;;6.51;88.63;98845.88;1668538;85;21217;-70
2021/01/24 11:20:13;;;;;;;38.45;19.65;;;;;;;6.54;88.69;98849.29;1602178;88;21233;-70
2021/01/24 11:22:41;;;;;;;36.40;18.07;;;;;;;6.55;88.56;98847.05;1605850;88;21744;-70
2021/01/24 11:25:10;;;;;;;36.98;16.80;;;;;;;6.53;88.39;98839.26;1605325;87;21259;-70
2021/01/24 11:27:41;;;;;;;30.00;15.00;;;;;;;6.53;88.71;98846.27;1583215;88;21211;-71
2021/01/24 11:30:11;;;;;;;26.37;12.73;;;;;;;6.55;88.79;98846.59;1602020;87;21250;-69
2021/01/24 11:32:47;;;;;;;26.45;13.40;;;;;;;6.56;88.75;98835.69;1594559;89;21194;-71
2021/01/24 11:35:16;;;;;;;34.03;14.75;;;;;;;6.59;88.97;98852.09;1647126;85;21214;-71
2021/01/24 11:37:44;;;;;;;32.03;13.85;;;;;;;6.61;88.34;98840.27;1693606;83;21644;-71